• Join FlightAware (Why Join?)
  • Login
  • US Flag 
04:42AM EST


 

Airport Tracker/Info


-or-


 

Live Flight TrackerFlight Track Log ✈ LAN2511 ✈ 19-Aug-2014 ✈ KMIA - SPIM / LIM

Flight Track Log - Related Links

Times and Time Zones

All times are in EDT time to prevent confusion due to time zone crossing. See the LAN2511 flight status page for this flight to view local times or setup timezone preferences in your user account.

Time Position Orientation Groundspeed Altitude Reporting Facility
EDT Latitude Longitude Course Direction KTS MPH feet Rate Location/Type
01:02AM 25.8019 -80.2583 89° East 162 186 1,000  Level Miami Center
01:02AM 25.8022 -80.2444 81° East 170 196 1,400 1,683 Climbing Miami Center
01:03AM 25.7692 -80.1844 121° Southeast 232 267 3,300 2,542 Climbing Miami Center
01:04AM 25.7056 -80.1456 151° Southeast 273 314 6,400 3,200 Climbing Miami Center
01:05AM 25.6300 -80.1658 194° South 286 329 9,700 2,750 Climbing Miami Center
01:06AM 25.5519 -80.2083 206° Southwest 312 359 11,900 2,410 Climbing Miami Center
01:07AM 25.4653 -80.2578 207° Southwest 343 395 14,600 2,628 Climbing Miami Center
01:08AM 25.3733 -80.3067 206° Southwest 360 414 17,200 2,508 Climbing Miami Center
01:09AM 25.2786 -80.3586 206° Southwest 376 433 19,700 2,350 Climbing Miami Center
01:10AM 25.1811 -80.4128 207° Southwest 387 445 21,900 2,136 Climbing Miami Center
01:11AM 25.0817 -80.4692 207° Southwest 397 457 23,900 1,884 Climbing Miami Center
01:12AM 25.0108 -80.5739 233° Southwest 418 481 25,700 1,707 Climbing Miami Center
01:13AM 24.9461 -80.6850 237° Southwest 425 489 27,400 1,700 Climbing Miami Center
01:14AM 24.8822 -80.8039 239° Southwest 439 505 29,100 1,424 Climbing Miami Center
01:15AM 24.8350 -80.9308 248° West 453 521 30,200 1,240 Climbing Miami Center
01:16AM 24.7800 -81.0628 245° Southwest 474 545 31,600 1,388 Climbing Miami Center
01:17AM 24.7206 -81.1897 243° Southwest 470 541 33,000 645 Climbing Miami Center
01:18AM 24.6622 -81.3178 243° Southwest 468 539 32,900  Descending Miami Center
01:19AM 24.6014 -81.4425 242° Southwest 465 535 33,000  Climbing Miami Center
01:20AM 24.5331 -81.5650 239° Southwest 479 551 32,900  Descending Miami Center
01:21AM 24.4217 -81.6475 214° Southwest 473 544 33,000  Climbing Miami Center
01:22AM 24.3025 -81.6692 189° South 455 524 32,900 -50 Descending Miami Center
01:23AM 24.1761 -81.6425 169° South 457 526 32,900 49 Level Miami Center
01:24AM 24.0506 -81.6175 170° South 457 526 33,000 50 Climbing Miami Center
01:25AM 23.9242 -81.5911 169° South 459 528 33,000  Level Miami Center
01:27AM 23.7374 -81.5566 172° South  Level FlightAware Approximate
01:34AM 22.8614 -81.4991 196° South  Level FlightAware Approximate
01:35AM 22.7395 -81.5376 196° South  Level FlightAware Approximate
01:36AM 22.6175 -81.5761 196° South  Level FlightAware Approximate
01:37AM 22.4956 -81.6146 196° South  Level FlightAware Approximate
01:38AM 22.3737 -81.6532 197° South  Level FlightAware Approximate
01:39AM 22.2523 -81.6937 197° South  Level FlightAware Approximate
01:40AM 22.1310 -81.7341 197° South  Level FlightAware Approximate
01:41AM 22.0096 -81.7745 197° South  Level FlightAware Approximate
01:42AM 21.8882 -81.8147 197° South  Level FlightAware Approximate
01:43AM 21.7668 -81.8549 197° South  Level FlightAware Approximate
01:44AM 21.6454 -81.8951 197° South  Level FlightAware Approximate
01:45AM 21.5240 -81.9351 197° South  Level FlightAware Approximate
01:46AM 21.4026 -81.9751 197° South  Level FlightAware Approximate
01:47AM 21.2811 -82.0151 197° South  Level FlightAware Approximate
01:48AM 21.1597 -82.0549 197° South  Level FlightAware Approximate
01:49AM 21.0382 -82.0948 197° South  Level FlightAware Approximate
01:50AM 20.9167 -82.1345 197° South  Level FlightAware Approximate
01:51AM 20.7953 -82.1742 197° South  Level FlightAware Approximate
01:52AM 20.6738 -82.2138 197° South  Level FlightAware Approximate
01:53AM 20.5523 -82.2533 197° South  Level FlightAware Approximate
01:54AM 20.4308 -82.2928 197° South  Level FlightAware Approximate
01:55AM 20.3093 -82.3323 197° South  Level FlightAware Approximate
01:56AM 20.1878 -82.3716 197° South  Level FlightAware Approximate
01:57AM 20.0648 -82.4004 192° South  Level FlightAware Approximate
01:58AM 19.9405 -82.4286 192° South  Level FlightAware Approximate
01:59AM 19.8163 -82.4566 192° South  Level FlightAware Approximate
02:00AM 19.6921 -82.4847 192° South  Level FlightAware Approximate
02:01AM 19.5678 -82.5126 192° South  Level FlightAware Approximate
02:02AM 19.4436 -82.5409 192° South  Level FlightAware Approximate
02:03AM 19.3195 -82.5693 192° South  Level FlightAware Approximate
02:04AM 19.1953 -82.5975 192° South  Level FlightAware Approximate
02:05AM 19.0711 -82.6257 192° South  Level FlightAware Approximate
02:06AM 18.9470 -82.6539 192° South  Level FlightAware Approximate
02:07AM 18.8228 -82.6821 192° South  Level FlightAware Approximate
02:08AM 18.6986 -82.7102 192° South  Level FlightAware Approximate
02:09AM 18.5744 -82.7382 192° South  Level FlightAware Approximate
02:10AM 18.4502 -82.7663 192° South  Level FlightAware Approximate
02:11AM 18.3260 -82.7942 192° South  Level FlightAware Approximate
02:12AM 18.2018 -82.8222 192° South  Level FlightAware Approximate
02:13AM 18.0776 -82.8501 192° South  Level FlightAware Approximate
02:14AM 17.9534 -82.8779 192° South  Level FlightAware Approximate
02:15AM 17.8291 -82.9057 192° South  Level FlightAware Approximate
02:16AM 17.7049 -82.9335 192° South  Level FlightAware Approximate
02:17AM 17.5807 -82.9613 192° South  Level FlightAware Approximate
02:18AM 17.4565 -82.9890 192° South  Level FlightAware Approximate
02:19AM 17.3323 -83.0166 192° South  Level FlightAware Approximate
02:20AM 17.2080 -83.0443 192° South  Level FlightAware Approximate
02:21AM 17.0838 -83.0719 192° South  Level FlightAware Approximate
02:22AM 16.9595 -83.0994 192° South  Level FlightAware Approximate
02:23AM 16.8353 -83.1269 192° South  Level FlightAware Approximate
02:24AM 16.7110 -83.1544 192° South  Level FlightAware Approximate
02:25AM 16.5868 -83.1818 192° South  Level FlightAware Approximate
02:26AM 16.4625 -83.2093 192° South  Level FlightAware Approximate
02:27AM 16.3382 -83.2366 192° South  Level FlightAware Approximate
02:28AM 16.2140 -83.2640 192° South  Level FlightAware Approximate
02:29AM 16.0897 -83.2913 192° South  Level FlightAware Approximate
02:30AM 15.9730 -83.2592 153° Southeast  Level FlightAware Approximate
02:31AM 15.8598 -83.1994 153° Southeast  Level FlightAware Approximate
02:32AM 15.7465 -83.1396 153° Southeast  Level FlightAware Approximate
02:33AM 15.6333 -83.0798 153° Southeast  Level FlightAware Approximate
02:34AM 15.5200 -83.0202 153° Southeast  Level FlightAware Approximate
02:35AM 15.4068 -82.9606 153° Southeast  Level FlightAware Approximate
02:36AM 15.2935 -82.9010 153° Southeast  Level FlightAware Approximate
02:37AM 15.1802 -82.8416 153° Southeast  Level FlightAware Approximate
02:38AM 15.0668 -82.7822 153° Southeast  Level FlightAware Approximate
02:39AM 14.9535 -82.7228 153° Southeast  Level FlightAware Approximate
02:40AM 14.8402 -82.6635 153° Southeast  Level FlightAware Approximate
02:41AM 14.7268 -82.6043 153° Southeast  Level FlightAware Approximate
02:42AM 14.6134 -82.5452 153° Southeast  Level FlightAware Approximate
02:43AM 14.5000 -82.4861 153° Southeast  Level FlightAware Approximate
02:44AM 14.3866 -82.4270 153° Southeast  Level FlightAware Approximate
02:45AM 14.2734 -82.3676 153° Southeast  Level FlightAware Approximate
02:46AM 14.1602 -82.3082 153° Southeast  Level FlightAware Approximate
02:47AM 14.0470 -82.2488 153° Southeast  Level FlightAware Approximate
02:48AM 13.9338 -82.1895 153° Southeast  Level FlightAware Approximate
02:49AM 13.8206 -82.1302 153° Southeast  Level FlightAware Approximate
02:50AM 13.7073 -82.0710 153° Southeast  Level FlightAware Approximate
02:51AM 13.5941 -82.0118 153° Southeast  Level FlightAware Approximate
02:52AM 13.4808 -81.9527 153° Southeast  Level FlightAware Approximate
02:53AM 13.3675 -81.8936 153° Southeast  Level FlightAware Approximate
02:54AM 13.2543 -81.8347 153° Southeast  Level FlightAware Approximate
02:55AM 13.1410 -81.7757 153° Southeast  Level FlightAware Approximate
02:56AM 13.0276 -81.7168 153° Southeast  Level FlightAware Approximate
02:57AM 12.9143 -81.6580 153° Southeast  Level FlightAware Approximate
02:58AM 12.8010 -81.5992 153° Southeast  Level FlightAware Approximate
02:59AM 12.6876 -81.5405 153° Southeast  Level FlightAware Approximate
03:00AM 12.5742 -81.4818 153° Southeast  Level FlightAware Approximate
03:01AM 12.4608 -81.4232 153° Southeast  Level FlightAware Approximate
03:02AM 12.3474 -81.3647 153° Southeast  Level FlightAware Approximate
03:03AM 12.2340 -81.3062 153° Southeast  Level FlightAware Approximate
03:04AM 12.1206 -81.2477 153° Southeast  Level FlightAware Approximate
03:05AM 12.0072 -81.1893 153° Southeast  Level FlightAware Approximate
03:06AM 11.8937 -81.1309 153° Southeast  Level FlightAware Approximate
03:07AM 11.7803 -81.0726 153° Southeast  Level FlightAware Approximate
03:08AM 11.6668 -81.0143 153° Southeast  Level FlightAware Approximate
03:09AM 11.5533 -80.9561 153° Southeast  Level FlightAware Approximate
03:10AM 11.4398 -80.8979 153° Southeast  Level FlightAware Approximate
03:11AM 11.3263 -80.8398 153° Southeast  Level FlightAware Approximate
03:12AM 11.2128 -80.7817 153° Southeast  Level FlightAware Approximate
03:13AM 11.0993 -80.7237 153° Southeast  Level FlightAware Approximate
03:14AM 10.9857 -80.6657 153° Southeast  Level FlightAware Approximate
03:15AM 10.8722 -80.6077 153° Southeast  Level FlightAware Approximate
03:16AM 10.7586 -80.5498 153° Southeast  Level FlightAware Approximate
03:17AM 10.6451 -80.4920 153° Southeast  Level FlightAware Approximate
03:18AM 10.5315 -80.4342 153° Southeast  Level FlightAware Approximate
03:19AM 10.4179 -80.3764 153° Southeast  Level FlightAware Approximate
03:20AM 10.3043 -80.3186 153° Southeast  Level FlightAware Approximate
03:21AM 10.1907 -80.2609 153° Southeast  Level FlightAware Approximate
03:22AM 10.0770 -80.2033 153° Southeast  Level FlightAware Approximate
03:23AM 9.9634 -80.1457 153° Southeast  Level FlightAware Approximate
03:24AM 9.8498 -80.0881 153° Southeast  Level FlightAware Approximate
03:25AM 9.7361 -80.0306 153° Southeast  Level FlightAware Approximate
03:26AM 9.6224 -79.9731 153° Southeast  Level FlightAware Approximate
03:27AM 9.5088 -79.9157 154° Southeast  Level FlightAware Approximate
03:28AM 9.3951 -79.8583 154° Southeast  Level FlightAware Approximate
03:29AM 9.2814 -79.8009 154° Southeast  Level FlightAware Approximate
03:30AM 9.1677 -79.7435 154° Southeast  Level FlightAware Approximate
03:31AM 9.0540 -79.6862 154° Southeast  Level FlightAware Approximate
03:32AM 8.9403 -79.6290 154° Southeast  Level FlightAware Approximate
03:33AM 8.8266 -79.5717 154° Southeast  Level FlightAware Approximate
03:34AM 8.7046 -79.5529 182° South  Level FlightAware Approximate
03:35AM 8.5777 -79.5575 182° South  Level FlightAware Approximate
03:36AM 8.4508 -79.5621 182° South  Level FlightAware Approximate
03:37AM 8.3239 -79.5667 182° South  Level FlightAware Approximate
03:38AM 8.1969 -79.5713 182° South  Level FlightAware Approximate
03:39AM 8.0700 -79.5760 182° South  Level FlightAware Approximate
03:40AM 7.9431 -79.5806 182° South  Level FlightAware Approximate
03:41AM 7.8162 -79.5843 181° South  Level FlightAware Approximate
03:42AM 7.6892 -79.5866 181° South  Level FlightAware Approximate
03:43AM 7.5622 -79.5890 181° South  Level FlightAware Approximate
03:44AM 7.4352 -79.5913 181° South  Level FlightAware Approximate
03:45AM 7.3082 -79.5937 181° South  Level FlightAware Approximate
03:46AM 7.1812 -79.5960 181° South  Level FlightAware Approximate
03:47AM 7.0542 -79.5984 181° South  Level FlightAware Approximate
03:48AM 6.9273 -79.6015 182° South  Level FlightAware Approximate
03:49AM 6.8004 -79.6062 182° South  Level FlightAware Approximate
03:50AM 6.6734 -79.6109 182° South  Level FlightAware Approximate
03:51AM 6.5465 -79.6156 182° South  Level FlightAware Approximate
03:52AM 6.4196 -79.6203 182° South  Level FlightAware Approximate
03:53AM 6.2927 -79.6250 182° South  Level FlightAware Approximate
03:54AM 6.1658 -79.6297 182° South  Level FlightAware Approximate
03:55AM 6.0388 -79.6344 182° South  Level FlightAware Approximate
03:56AM 5.9119 -79.6391 182° South  Level FlightAware Approximate
03:57AM 5.7850 -79.6438 182° South  Level FlightAware Approximate
03:58AM 5.6581 -79.6485 182° South  Level FlightAware Approximate
03:59AM 5.5311 -79.6532 182° South  Level FlightAware Approximate
04:00AM 5.4042 -79.6579 182° South  Level FlightAware Approximate
04:01AM 5.2773 -79.6626 182° South  Level FlightAware Approximate
04:02AM 5.1504 -79.6670 181° South  Level FlightAware Approximate
04:03AM 5.0234 -79.6699 181° South  Level FlightAware Approximate
04:04AM 4.8964 -79.6728 181° South  Level FlightAware Approximate
04:05AM 4.7695 -79.6757 181° South  Level FlightAware Approximate
04:06AM 4.6425 -79.6785 181° South  Level FlightAware Approximate
04:07AM 4.5155 -79.6814 181° South  Level FlightAware Approximate
04:08AM 4.3885 -79.6842 181° South  Level FlightAware Approximate
04:09AM 4.2616 -79.6871 181° South  Level FlightAware Approximate
04:10AM 4.1346 -79.6900 181° South  Level FlightAware Approximate
04:11AM 4.0076 -79.6928 181° South  Level FlightAware Approximate
04:12AM 3.8806 -79.6957 181° South  Level FlightAware Approximate
04:13AM 3.7537 -79.6986 181° South  Level FlightAware Approximate
04:14AM 3.6267 -79.7014 181° South  Level FlightAware Approximate
04:15AM 3.4997 -79.7043 181° South  Level FlightAware Approximate
04:16AM 3.3727 -79.7072 181° South  Level FlightAware Approximate
04:17AM 3.2458 -79.7100 181° South  Level FlightAware Approximate
04:18AM 3.1188 -79.7129 181° South  Level FlightAware Approximate
04:19AM 2.9918 -79.7157 181° South  Level FlightAware Approximate
04:20AM 2.8648 -79.7189 182° South  Level FlightAware Approximate
04:21AM 2.7379 -79.7223 182° South  Level FlightAware Approximate
04:22AM 2.6109 -79.7256 182° South  Level FlightAware Approximate
04:23AM 2.4839 -79.7290 182° South  Level FlightAware Approximate
04:24AM 2.3570 -79.7323 182° South  Level FlightAware Approximate
04:25AM 2.2300 -79.7356 182° South  Level FlightAware Approximate
04:26AM 2.1031 -79.7390 182° South  Level FlightAware Approximate
04:27AM 1.9761 -79.7423 182° South  Level FlightAware Approximate
04:28AM 1.8491 -79.7457 182° South  Level FlightAware Approximate
04:29AM 1.7222 -79.7490 182° South  Level FlightAware Approximate
04:30AM 1.5952 -79.7523 182° South  Level FlightAware Approximate
04:31AM 1.4683 -79.7557 182° South  Level FlightAware Approximate
04:32AM 1.3413 -79.7590 182° South  Level FlightAware Approximate
04:33AM 1.2143 -79.7624 182° South  Level FlightAware Approximate
04:34AM 1.0874 -79.7657 182° South  Level FlightAware Approximate
04:35AM 0.9604 -79.7691 182° South  Level FlightAware Approximate
04:36AM 0.8334 -79.7724 182° South  Level FlightAware Approximate
04:37AM 0.7065 -79.7757 182° South  Level FlightAware Approximate
04:38AM 0.5795 -79.7791 182° South  Level FlightAware Approximate
04:39AM 0.4525 -79.7824 182° South  Level FlightAware Approximate
04:40AM 0.3256 -79.7858 182° South  Level FlightAware Approximate
04:41AM 0.1986 -79.7891 182° South  Level FlightAware Approximate
04:42AM 0.0717 -79.7924 182° South  Level FlightAware Approximate
04:43AM -0.0553 -79.7958 182° South  Level FlightAware Approximate
04:44AM -0.1823 -79.7991 182° South  Level FlightAware Approximate
04:45AM -0.3092 -79.8024 182° South  Level FlightAware Approximate
04:46AM -0.4362 -79.8058 182° South  Level FlightAware Approximate
04:47AM -0.5631 -79.8091 182° South  Level FlightAware Approximate
04:48AM -0.6901 -79.8125 182° South  Level FlightAware Approximate
04:49AM -0.8171 -79.8158 182° South  Level FlightAware Approximate
04:50AM -0.9440 -79.8191 182° South  Level FlightAware Approximate
04:51AM -1.0710 -79.8225 182° South  Level FlightAware Approximate
04:52AM -1.1980 -79.8258 182° South  Level FlightAware Approximate
04:53AM -1.3249 -79.8292 182° South  Level FlightAware Approximate
04:54AM -1.4519 -79.8325 182° South  Level FlightAware Approximate
04:55AM -1.5789 -79.8358 182° South  Level FlightAware Approximate
04:56AM -1.7058 -79.8392 182° South  Level FlightAware Approximate
04:57AM -1.8328 -79.8425 182° South  Level FlightAware Approximate
04:58AM -1.9597 -79.8459 182° South  Level FlightAware Approximate
04:59AM -2.0867 -79.8492 182° South  Level FlightAware Approximate
05:00AM -2.2109 -79.8268 166° South  Level FlightAware Approximate
05:01AM -2.3342 -79.7964 166° South  Level FlightAware Approximate
05:02AM -2.4575 -79.7660 166° South  Level FlightAware Approximate
05:03AM -2.5808 -79.7355 166° South  Level FlightAware Approximate
05:04AM -2.7042 -79.7051 166° South  Level FlightAware Approximate
05:05AM -2.8275 -79.6747 166° South  Level FlightAware Approximate
05:06AM -2.9508 -79.6443 166° South  Level FlightAware Approximate
05:07AM -3.0741 -79.6138 166° South  Level FlightAware Approximate
05:08AM -3.1974 -79.5834 166° South  Level FlightAware Approximate
05:09AM -3.3207 -79.5529 166° South  Level FlightAware Approximate
05:10AM -3.4440 -79.5224 166° South  Level FlightAware Approximate
05:11AM -3.5674 -79.4920 166° South  Level FlightAware Approximate
05:12AM -3.6907 -79.4615 166° South  Level FlightAware Approximate
05:13AM -3.8140 -79.4310 166° South  Level FlightAware Approximate
05:14AM -3.9373 -79.4005 166° South  Level FlightAware Approximate
05:15AM -4.0606 -79.3700 166° South  Level FlightAware Approximate
05:16AM -4.1839 -79.3395 166° South  Level FlightAware Approximate
05:17AM -4.3072 -79.3090 166° South  Level FlightAware Approximate
05:18AM -4.4305 -79.2784 166° South  Level FlightAware Approximate
05:19AM -4.5538 -79.2479 166° South  Level FlightAware Approximate
05:20AM -4.6771 -79.2173 166° South  Level FlightAware Approximate
05:21AM -4.8004 -79.1868 166° South  Level FlightAware Approximate
05:22AM -4.9237 -79.1562 166° South  Level FlightAware Approximate
05:23AM -5.0470 -79.1256 166° South  Level FlightAware Approximate
05:24AM -5.1703 -79.0950 166° South  Level FlightAware Approximate
05:25AM -5.2936 -79.0644 166° South  Level FlightAware Approximate
05:26AM -5.4169 -79.0338 166° South  Level FlightAware Approximate
05:27AM -5.5402 -79.0031 166° South  Level FlightAware Approximate
05:28AM -5.6635 -78.9725 166° South  Level FlightAware Approximate
05:29AM -5.7867 -78.9418 166° South  Level FlightAware Approximate
05:30AM -5.9100 -78.9111 166° South  Level FlightAware Approximate
05:31AM -6.0333 -78.8804 166° South  Level FlightAware Approximate
05:32AM -6.1566 -78.8497 166° South  Level FlightAware Approximate
05:33AM -6.2799 -78.8190 166° South  Level FlightAware Approximate
05:34AM -6.4032 -78.7883 166° South  Level FlightAware Approximate
05:35AM -6.5264 -78.7575 166° South  Level FlightAware Approximate
05:36AM -6.6497 -78.7268 166° South  Level FlightAware Approximate
05:37AM -6.7730 -78.6960 166° South  Level FlightAware Approximate
05:38AM -6.8963 -78.6652 166° South  Level FlightAware Approximate
05:39AM -7.0195 -78.6344 166° South  Level FlightAware Approximate
05:40AM -7.1428 -78.6036 166° South  Level FlightAware Approximate
05:41AM -7.2661 -78.5727 166° South  Level FlightAware Approximate
05:42AM -7.3893 -78.5419 166° South  Level FlightAware Approximate
05:43AM -7.5126 -78.5110 166° South  Level FlightAware Approximate
05:44AM -7.6358 -78.4801 166° South  Level FlightAware Approximate
05:45AM -7.7591 -78.4492 166° South  Level FlightAware Approximate
05:46AM -7.8824 -78.4183 166° South  Level FlightAware Approximate
05:47AM -8.0056 -78.3873 166° South  Level FlightAware Approximate
05:48AM -8.1289 -78.3563 166° South  Level FlightAware Approximate
05:49AM -8.2521 -78.3253 166° South  Level FlightAware Approximate
05:50AM -8.3754 -78.2943 166° South  Level FlightAware Approximate
05:51AM -8.4986 -78.2633 166° South  Level FlightAware Approximate
05:52AM -8.6218 -78.2323 166° South  Level FlightAware Approximate
05:53AM -8.7451 -78.2012 166° South  Level FlightAware Approximate
05:54AM -8.8683 -78.1701 166° South  Level FlightAware Approximate
05:55AM -8.9916 -78.1390 166° South  Level FlightAware Approximate
05:56AM -9.1148 -78.1079 166° South  Level FlightAware Approximate
05:57AM -9.2380 -78.0767 166° South  Level FlightAware Approximate
05:58AM -9.3612 -78.0456 166° South  Level FlightAware Approximate
05:59AM -9.4845 -78.0144 166° South  Level FlightAware Approximate
06:00AM -9.6077 -77.9832 166° South  Level FlightAware Approximate
06:01AM -9.7309 -77.9519 166° South  Level FlightAware Approximate
06:02AM -9.8541 -77.9207 166° South  Level FlightAware Approximate
06:03AM -9.9773 -77.8894 166° South  Level FlightAware Approximate
06:04AM -10.1008 -77.8591 168° South  Level FlightAware Approximate
06:05AM -10.2248 -77.8313 166° South  Level FlightAware Approximate
06:06AM -10.3481 -77.8005 166° South  Level FlightAware Approximate
06:07AM -10.4721 -77.7728 165° South  Level FlightAware Approximate
06:08AM -10.5948 -77.7393 165° South  Level FlightAware Approximate
06:09AM -10.7186 -77.7107 168° South  Level FlightAware Approximate
06:10AM -10.8397 -77.6726 160° South  Level FlightAware Approximate
06:11AM -10.9609 -77.6348 166° South  Level FlightAware Approximate
06:12AM -11.0848 -77.6064 169° South  Level FlightAware Approximate
06:13AM -11.2094 -77.5815 169° South  Level FlightAware Approximate
06:14AM -11.3266 -77.5378 147° Southeast  Level FlightAware Approximate
06:15AM -11.4348 -77.4699 149° Southeast  Level FlightAware Approximate
06:16AM -11.5427 -77.4016 148° Southeast  Level FlightAware Approximate
06:17AM -11.6505 -77.3330 147° Southeast  Level FlightAware Approximate
06:18AM -11.7609 -77.2695 154° Southeast  Level FlightAware Approximate
06:19AM -11.8612 -77.2018 162° South  Level FlightAware Approximate
06:20AM -11.9693 -77.1356 159° South  Level FlightAware Approximate
06:21AM -12.0167 -77.1167 159° South  Level FlightAware Approximate
06:22AM -12.0219 -77.1143 159° South  Level Estimated
06:23AM -12.0167 -77.1167 159° South  Level FlightAware Approximate
06:24AM -12.0219 -77.1143 159° South  Level Estimated
06:25AM -12.0167 -77.1167 159° South  Level FlightAware Approximate
06:26AM -12.0219 -77.1143 159° South  Level Estimated
06:27AM -12.0167 -77.1167 159° South  Level FlightAware Approximate
06:28AM -12.0219 -77.1143 159° South  Level Estimated
06:29AM -12.0167 -77.1167 159° South  Level FlightAware Approximate
06:30AM -12.0219 -77.1143 159° South  Level Estimated
06:31AM -12.0167 -77.1167 159° South  Level FlightAware Approximate
06:32AM -12.0219 -77.1143 159° South  Level Estimated
06:33AM -12.0167 -77.1167 159° South  Level FlightAware Approximate